»·PEaware :: N900HE KAVX-KSAN

N900HE :: KAVX-KSAN

FLIGHT INFORMATION

Flight Status: Arrived
Operator: Privately registered:
United States
More flights under this callsign
Pilot: Heigo T. (17565)
Aircraft: SOCATA TBM-900
(TBM9)
More flights by this aircraft type
Origin: KAVX Catalina
United States
Destination: KSAN San Diego Intl-Lindbergh
United States
More flights between these airports :: More routes between these airports
Route: SXC V208 LAX118R CARDI MZB320R MZB
File this flight plan on PilotEdge
Remarks: I8
Altitude:
(Current/Filed)
9,000ft
Speed:
(Current/Filed)
175kts
Departed: 16-Jan-20 02:16 PM
Arrived: 16-Jan-20 02:58 PM
Distance/Time
Traveled:
74nm/0:42
Distance/Time
To Go:
Arrived

Flight Plot

Page will automatically refresh every two minutes.


Map Options




Map Legend


Flown Route
Filed Route
Departure Airport
Arrival Airport
Navaid (VOR, NDB)
Fix

Horizontal Profiles

Position Reports

Time Latitude Longitude Heading Altitude Ground
Speed
16-Jan-20 13:44 33.403132 -118.415890 10 1569ft 0kts
16-Jan-20 13:45 33.403132 -118.415890 10 1569ft 0kts
16-Jan-20 13:46 33.403132 -118.415890 10 1569ft 0kts
16-Jan-20 13:47 33.403132 -118.415890 10 1569ft 0kts
16-Jan-20 13:48 33.403132 -118.415890 10 1569ft 0kts
16-Jan-20 13:49 33.403132 -118.415890 10 1569ft 0kts
16-Jan-20 13:50 33.403132 -118.415890 10 1569ft 0kts
16-Jan-20 13:51 33.403132 -118.415890 10 1569ft 0kts
16-Jan-20 13:52 33.403132 -118.415890 10 1569ft 0kts
16-Jan-20 13:53 33.403132 -118.415890 10 1569ft 0kts
16-Jan-20 13:54 33.403132 -118.415890 10 1569ft 0kts
16-Jan-20 13:55 33.403132 -118.415890 10 1569ft 0kts
16-Jan-20 13:56 33.403132 -118.415890 10 1569ft 0kts
16-Jan-20 13:57 33.403132 -118.415890 10 1569ft 0kts
16-Jan-20 13:58 33.403132 -118.415890 10 1569ft 0kts
16-Jan-20 13:59 33.403132 -118.415890 10 1569ft 0kts
16-Jan-20 14:00 33.403132 -118.415890 10 1569ft 0kts
16-Jan-20 14:01 33.403132 -118.415890 10 1569ft 0kts
16-Jan-20 14:02 33.403132 -118.415890 10 1569ft 0kts
16-Jan-20 14:03 33.403132 -118.415890 10 1569ft 0kts
16-Jan-20 14:04 33.403132 -118.415890 10 1569ft 0kts
16-Jan-20 14:05 33.403132 -118.415890 10 1569ft 0kts
16-Jan-20 14:06 33.403132 -118.415890 10 1569ft 0kts
16-Jan-20 14:07 33.403132 -118.415890 10 1569ft 0kts
16-Jan-20 14:08 33.403132 -118.415890 10 1569ft 0kts
16-Jan-20 14:09 33.403219 -118.415870 10 1569ft 3kts
16-Jan-20 14:10 33.404162 -118.416494 56 1569ft 7kts
16-Jan-20 14:11 33.405789 -118.413707 55 1569ft 8kts
16-Jan-20 14:12 33.406895 -118.411850 54 1569ft 5kts
16-Jan-20 14:13 33.407222 -118.411358 358 1569ft 0kts
16-Jan-20 14:14 33.407368 -118.411678 255 1569ft 8kts
16-Jan-20 14:15 33.399366 -118.425145 234 2179ft 105kts
16-Jan-20 14:16 33.378727 -118.454337 231 4704ft 119kts
16-Jan-20 14:17 33.360434 -118.481417 232 6920ft 111kts
16-Jan-20 14:18 33.339475 -118.475073 105 8900ft 156kts
16-Jan-20 14:19 33.373356 -118.413258 88 8942ft 234kts
16-Jan-20 14:20 33.364265 -118.336617 105 8973ft 232kts
16-Jan-20 14:21 33.353864 -118.257493 105 8963ft 234kts
16-Jan-20 14:22 33.343587 -118.179454 105 8963ft 234kts
16-Jan-20 14:23 33.333319 -118.101837 105 8964ft 233kts
16-Jan-20 14:24 33.322965 -118.023918 105 8964ft 233kts
16-Jan-20 14:25 33.314275 -117.958801 105 8989ft 231kts
16-Jan-20 14:26 33.304110 -117.882961 105 8994ft 229kts
16-Jan-20 14:27 33.293968 -117.807705 105 8998ft 227kts
16-Jan-20 14:28 33.283618 -117.732962 106 8999ft 226kts
16-Jan-20 14:29 33.272473 -117.658957 106 8999ft 226kts
16-Jan-20 14:30 33.261244 -117.584897 107 9007ft 225kts
16-Jan-20 14:31 33.223538 -117.530818 140 9007ft 212kts
16-Jan-20 14:32 33.182403 -117.479276 140 9003ft 215kts
16-Jan-20 14:33 33.140940 -117.427396 140 8998ft 215kts
16-Jan-20 14:34 33.090534 -117.396311 160 8993ft 204kts
16-Jan-20 14:35 33.038313 -117.367292 159 8992ft 208kts
16-Jan-20 14:36 32.985333 -117.337878 158 8988ft 211kts
16-Jan-20 14:37 32.931461 -117.307985 157 7776ft 212kts
16-Jan-20 14:38 32.883769 -117.278341 125 5710ft 187kts
16-Jan-20 14:39 32.868039 -117.224440 111 4963ft 159kts
16-Jan-20 14:40 32.854179 -117.174305 111 4961ft 159kts
16-Jan-20 14:41 32.840294 -117.124005 111 4961ft 159kts
16-Jan-20 14:42 32.826437 -117.073948 111 4961ft 158kts
16-Jan-20 14:43 32.812704 -117.024544 111 4965ft 156kts
16-Jan-20 14:44 32.798881 -116.975195 111 4968ft 156kts
16-Jan-20 14:45 32.785068 -116.926156 111 4971ft 156kts
16-Jan-20 14:46 32.771127 -116.876840 111 4971ft 156kts
16-Jan-20 14:47 32.744863 -116.845739 190 4981ft 148kts
16-Jan-20 14:48 32.704219 -116.853527 191 4966ft 147kts
16-Jan-20 14:49 32.685474 -116.893184 251 4959ft 146kts
16-Jan-20 14:50 32.674023 -116.945389 275 4033ft 171kts
16-Jan-20 14:51 32.686156 -116.993572 283 3415ft 150kts
16-Jan-20 14:52 32.697164 -117.039221 282 2662ft 136kts
16-Jan-20 14:53 32.708020 -117.084143 282 2060ft 148kts
16-Jan-20 14:54 32.717671 -117.124062 282 1267ft 119kts
16-Jan-20 14:55 32.725940 -117.157965 280 428ft 97kts
16-Jan-20 14:56 32.732665 -117.185965 286 18ft 52kts
16-Jan-20 14:57 32.733988 -117.188078 23 17ft 0kts
16-Jan-20 14:58 32.734185 -117.187435 108 18ft 17kts
16-Jan-20 14:59 32.733115 -117.183023 105 17ft 9kts
16-Jan-20 15:00 32.732037 -117.178480 108 18ft 14kts
16-Jan-20 15:01 32.732392 -117.177788 193 19ft 0kts
16-Jan-20 15:02 32.732393 -117.177788 193 19ft 0kts
16-Jan-20 15:03 32.732393 -117.177788 193 19ft 0kts
16-Jan-20 15:04 32.732393 -117.177788 193 19ft 0kts
16-Jan-20 15:05 32.732393 -117.177788 193 19ft 0kts

Navigation Log

Ident Type
Flight plan parsing failed, navigation log unavailable